Piura, Peru

3:56 PM PET on August 24, 2016 (GMT -0500)
Capitan Montes | | Change Station

Elev 295 ft 4.58 °S, 81.25 °W | Updated 56 minutes ago

Clear
Clear
77 °F
Feels Like 77 °F
N
15
Wind Variable Wind from SSW

Today
High -- | Low -- °F
--% Chance of Precip.
Yesterday
High -- | Low -- °F
Precip. -- in
Pressure 29.86 in
Visibility -9999.0 miles
Clouds
Dew Point 64 °F
Humidity 65%
Rainfall 0.00 in
Snow Depth Not available.
6:25 AM 6:24 PM
Waning Gibbous, 53% visible
METAR SPYL 242000Z 20013KT CAVOK 25/18 Q1011 RMK BIRD HAZARD RWY 17/35 PP000
Pressure 29.86 in
Visibility -9999.0 miles
Clouds
Dew Point 64 °F
Humidity 65%
Rainfall 0.00 in
Snow Depth Not available.
6:25 AM 6:24 PM
Waning Gibbous, 53% visible
METAR SPYL 242000Z 20013KT CAVOK 25/18 Q1011 RMK BIRD HAZARD RWY 17/35 PP000

10-Day Weather Forecast

No radar image for this location.
×

Almanac

Astronomy

Aug. 24, 2016 Rise Set
Actual Time
Civil Twilight
Nautical Twilight
Astronomical Twilight
Moon
Length of Visible Light
Length of Day
Tomorrow will be .
, % of the Moon is Illuminated

Today's Extremes

Country Highs Country Lows

Community

WunderPhotos

Upload Photos

1,934,710 photos uploaded!

WunderBlog® & News

Nearby

Air Quality

  Air Quality AQ Index Pollutant
Not available.

Snow Depth

Station Depth Elevation

Earthquake Activity

City Distance Mag. Time & Date
Minimum magnitude displayed is 2.5.

Coastal Water Temperatures

Place Temperature

Stations

Nearby Weather Stations

Station Location Temp. Windchill Dew Point Humidity Wind Precip. Elev Updated Type